Terminal Aerodrome Forecast
Issued by NWS

Home | Current Version | Previous Version | Text Only | Print | Product List | Glossary On
Versions: 1 2 3 4 5 6 7 8 9 10 11 12 13 14 15 16 17
000
FTAK31 PAJN 280500
TAFASI
TAF
PASI 280521Z 2806/2906 VRB03KT P6SM SCT070 SCT150
     FM281200 13008KT P6SM VCSH SCT030 OVC060
     FM281800 14009KT P6SM -RA BKN030 OVC050=

USA.gov is the U.S. government's official web portal to all federal, state and local government web resources and services.